Flight Track Log - Related Links

Times and Time Zones

All times are in EDT time to prevent confusion due to time zone crossing. See the DAL268 flight status page for this flight to view local times or setup timezone preferences in your user account.

Time Position Orientation Groundspeed Altitude Reporting Facility
EDT Latitude Longitude Course Direction KTS MPH feet Rate Location/Type
Sat 12:32:56 AM 40.6590 -73.7730 North 10 12  Level FlightAware ADS-B
Sat 12:34:34 AM 40.6600 -73.7730 360° North 10 12 17 Level FlightAware ADS-B
Sat 12:35:03 AM 40.6600 -73.7720 90° East 12 14 18 Level FlightAware ADS-B
Sat 12:37:00 AM 40.8829 -73.5504 37° Northeast  Level FlightAware Approximate
Sat 12:38:00 AM 40.9961 -73.4439 30° Northeast  Level FlightAware Approximate
Sat 12:38:21 AM 40.6620 -73.7720 30° Northeast 9 10  Level FlightAware ADS-B
Sat 12:39:43 AM 40.6630 -73.7720 360° North 9 10 21 Level FlightAware ADS-B
Sat 12:41:20 AM 40.6640 -73.7720 360° North 9 10 23 Level FlightAware ADS-B
Sat 12:43:07 AM 40.6650 -73.7720 360° North 2 2 26 Level FlightAware ADS-B
Sat 12:44:51 AM 40.6660 -73.7720 37° Northeast 2 2 29 Level FlightAware ADS-B
Sat 12:45:00 AM 40.8785 -73.5548 37° Northeast  Level FlightAware Approximate
Sat 12:46:17 AM 40.6660 -73.7710 90° East 2 2  Level FlightAware ADS-B
Sat 12:47:09 AM 40.6670 -73.7710 360° North 2 2 37 Level FlightAware ADS-B
Sat 12:49:00 AM 40.8764 -73.5570 37° Northeast  Level FlightAware Approximate
Sat 12:49:15 AM 40.6670 -73.7700 37° Northeast 16 18  Level FlightAware ADS-B
Sat 12:49:55 AM 40.6660 -73.7710 217° Southwest 19 22 52 Level FlightAware ADS-B
Sat 12:51:23 AM 40.6640 -73.7680 131° Southeast 32 37 56 Level FlightAware ADS-B
Sat 12:51:50 AM 40.6630 -73.7670 143° Southeast 33 38 71 Level FlightAware ADS-B
Sat 12:52:19 AM 40.6620 -73.7640 114° Southeast 26 30 77 Level FlightAware ADS-B
Sat 12:52:41 AM 40.6620 -73.7630 90° East 17 20 85 Level FlightAware ADS-B
Sat 12:53:23 AM 40.6610 -73.7630 180° South 11 13 92 Level FlightAware ADS-B
Sat 12:54:11 AM 40.6610 -73.7620 90° East 2 2 110 Level FlightAware ADS-B
Sat 12:55:57 AM 40.6610 -73.7640 37° Northeast 34 39 141 Level FlightAware ADS-B
Sat 12:56:00 AM 40.8713 -73.5620 37° Northeast  Level FlightAware Approximate
Sat 12:56:17 AM 40.6630 -73.7690 298° West 84 97  Level FlightAware ADS-B
Sat 12:57:01 AM 40.6790 -73.8020 303° West 177 204 400 857 Climbing FlightAware ADS-B
Sat 12:57:13 AM 40.6830 -73.8140 294° West 173 199 800 1,500 Climbing FlightAware ADS-B
Sat 12:57:41 AM 40.6710 -73.8420 241° Southwest 216 249 1,400 1,138 Climbing FlightAware ADS-B
Sat 12:58:11 AM 40.6470 -73.8670 218° Southwest 242 278 1,900 1,000 Climbing FlightAware ADS-B
Sat 12:58:23 AM 40.6350 -73.8750 207° Southwest 257 296 2,100 900 Climbing FlightAware ADS-B
Sat 12:58:31 AM 40.6240 -73.8770 188° South 271 312 2,200 857 Climbing FlightAware ADS-B
Sat 12:58:51 AM 40.5990 -73.8660 162° South 287 330 2,500 1,833 Climbing FlightAware ADS-B
Sat 12:59:07 AM 40.5820 -73.8510 146° Southeast 284 327 3,300 2,357 Climbing FlightAware ADS-B
Sat 12:59:19 AM 40.5720 -73.8340 128° Southeast 289 333 3,600 1,909 Climbing FlightAware ADS-B
Sat 12:59:29 AM 40.5660 -73.8180 116° Southeast 290 334 4,000 2,143 Climbing FlightAware ADS-B
Sat 12:59:47 AM 40.5605 -73.7867 103° East 298 343 4,600 2,087 Climbing FlightAware ADS-B
Sat 12:59:52 AM 40.5608 -73.7778 87° East 298 343 4,800 2,250 Climbing FlightAware ADS-B
Sat 12:59:55 AM 40.5616 -73.7723 79° East 296 341 4,900 2,571 Climbing FlightAware ADS-B
Sat 12:59:59 AM 40.5632 -73.7653 73° East 295 339 5,100 3,333 Climbing FlightAware ADS-B
Sat 01:00:04 AM 40.5661 -73.7565 67° East 294 338 5,400 3,333 Climbing FlightAware ADS-B
Sat 01:00:08 AM 40.5693 -73.7504 55° Northeast 292 336 5,600 3,000 Climbing FlightAware ADS-B
Sat 01:00:16 AM 40.5764 -73.7397 49° Northeast 289 333 6,000 2,800 Climbing FlightAware ADS-B
Sat 01:00:23 AM 40.5831 -73.7315 43° Northeast 287 330 6,300 2,727 Climbing FlightAware ADS-B
Sat 01:00:38 AM 40.5989 -73.7148 39° Northeast 289 333 7,000 2,710 Climbing FlightAware ADS-B
Sat 01:00:54 AM 40.6151 -73.6979 38° Northeast 292 336 7,700 2,690 Climbing FlightAware ADS-B
Sat 01:01:07 AM 40.6300 -73.6837 36° Northeast 291 335 8,300 2,880 Climbing FlightAware ADS-B
Sat 01:01:19 AM 40.6436 -73.6728 31° Northeast 293 337 8,900 2,571 Climbing FlightAware ADS-B
Sat 01:01:35 AM 40.6628 -73.6588 29° Northeast 297 342 9,500 2,118 Climbing FlightAware ADS-B
Sat 01:02:10 AM 40.7052 -73.6274 29° Northeast 303 349 10,700 1,781 Climbing FlightAware ADS-B
Sat 01:02:39 AM 40.7436 -73.6012 27° Northeast 333 383 11,400 1,180 Climbing FlightAware ADS-B
Sat 01:03:11 AM 40.7894 -73.5689 28° Northeast 333 383 11,900 1,182 Climbing FlightAware ADS-B
Sat 01:03:45 AM 40.8430 -73.5310 28° Northeast 388 447 12,700 1,733 Climbing FlightAware ADS-B
Sat 01:03:56 AM 40.8606 -73.5181 29° Northeast 333 383 13,200 2,512 Climbing FlightAware ADS-B
Sat 01:04:28 AM 40.9111 -73.4827 28° Northeast 392 451 14,500 2,095 Climbing FlightAware ADS-B
Sat 01:04:59 AM 40.9623 -73.4465 28° Northeast 406 467 15,400 2,066 Climbing FlightAware ADS-B
Sat 01:05:29 AM 40.9821 -73.4233 41° Northeast 409 471 16,600 1,645 Climbing FlightAware ADS-B
Sat 01:06:01 AM 41.0348 -73.3859 28° Northeast 416 479 17,100 484 Climbing FlightAware ADS-B
Sat 01:06:31 AM 41.0856 -73.3500 28° Northeast 412 474 17,100 -100 Level FlightAware ADS-B
Sat 01:07:01 AM 41.1377 -73.3135 28° Northeast 412 474 17,000 -107 Descending FlightAware ADS-B
Sat 01:07:27 AM 41.1811 -73.2831 28° Northeast 411 473 17,000 847 Level FlightAware ADS-B
Sat 01:08:26 AM 41.2760 -73.2050 32° Northeast 432 497 18,200 1,538 Climbing FlightAware ADS-B
Sat 01:09:24 AM 41.3530 -73.0840 50° Northeast 442 509 20,000 1,733 Climbing FlightAware ADS-B
Sat 01:09:56 AM 41.3940 -73.0190 50° Northeast 449 517 20,800 593 Climbing FlightAware ADS-B
Sat 01:10:45 AM 41.4490 -72.9300 50° Northeast 449 517 20,800 1,685 Level FlightAware ADS-B
Sat 01:11:25 AM 41.5100 -72.8340 50° Northeast 457 526 23,300 2,495 Climbing FlightAware ADS-B
Sat 01:12:26 AM 41.5970 -72.6960 50° Northeast 461 531 25,000 1,604 Climbing FlightAware ADS-B
Sat 01:13:06 AM 41.6530 -72.6050 51° Northeast 465 535 26,000 923 Climbing FlightAware ADS-B
Sat 01:13:44 AM 41.6990 -72.5300 51° Northeast 466 536 26,200 1,055 Climbing FlightAware ADS-B
Sat 01:13:57 AM 41.1810 -73.2830 228° Southwest 26,900 1,585 Climbing FlightAware ADS-B
Sat 01:14:37 AM 41.7240 -72.4880 47° Northeast 477 549 27,600 1,118 Climbing FlightAware ADS-B
Sat 01:15:39 AM 41.8650 -72.2570 51° Northeast 480 552 28,800 1,096 Climbing FlightAware ADS-B
Sat 01:16:21 AM 41.9210 -72.1640 51° Northeast 482 555 29,500 1,295 Climbing FlightAware ADS-B
Sat 01:17:07 AM 41.9890 -72.0510 51° Northeast 480 552 30,700 1,047 Climbing FlightAware ADS-B
Sat 01:17:47 AM 42.0460 -71.9570 51° Northeast 491 565 31,000 357 Climbing FlightAware ADS-B
Sat 01:18:31 AM 42.1100 -71.8520 51° Northeast 504 580 31,200 500 Climbing FlightAware ADS-B
Sat 01:19:11 AM 42.1680 -71.7530 52° Northeast 510 587 31,700 732 Climbing FlightAware ADS-B
Sat 01:19:53 AM 42.2310 -71.6490 51° Northeast 511 588 32,200 794 Climbing FlightAware ADS-B
Sat 01:20:19 AM 42.2710 -71.5830 51° Northeast 513 590 32,600 686 Climbing FlightAware ADS-B
Sat 01:21:03 AM 42.3370 -71.4740 51° Northeast 518 596 33,000 273 Climbing FlightAware ADS-B
Sat 01:21:47 AM 42.4040 -71.3620 51° Northeast 520 598 33,000  Level FlightAware ADS-B
Sat 01:22:23 AM 42.4570 -71.2730 51° Northeast 521 600 33,000  Level FlightAware ADS-B
Sat 01:23:11 AM 42.5310 -71.1480 51° Northeast 523 602 33,000  Level FlightAware ADS-B
Sat 01:23:51 AM 42.5920 -71.0450 51° Northeast 524 603 33,000  Level FlightAware ADS-B
Sat 01:24:33 AM 42.6550 -70.9360 52° Northeast 525 604 33,000  Level FlightAware ADS-B
Sat 01:25:07 AM 42.7050 -70.8510 51° Northeast 525 604 33,000  Level FlightAware ADS-B
Sat 01:25:56 AM 42.7790 -70.7220 52° Northeast 527 606 33,000  Level FlightAware ADS-B
Sat 01:26:39 AM 42.8450 -70.6080 52° Northeast 530 610 33,000  Level FlightAware ADS-B
Sat 01:27:21 AM 42.9080 -70.4980 52° Northeast 532 612 33,000  Level FlightAware ADS-B
Sat 01:28:03 AM 42.9720 -70.3870 52° Northeast 531 611 33,000  Level FlightAware ADS-B
Sat 01:28:59 AM 43.0540 -70.2430 52° Northeast 528 608 33,000  Level FlightAware ADS-B
Sat 01:29:55 AM 43.1420 -70.0900 52° Northeast 529 609 33,000  Level FlightAware ADS-B
Sat 01:30:30 AM 43.1910 -70.0020 53° Northeast 531 611 33,000  Level FlightAware ADS-B
Sat 01:32:00 AM 43.3310 -69.7540 52° Northeast 533 613 33,000  Level FlightAware ADS-B
Sat 01:32:36 AM 43.3850 -69.6560 53° Northeast 533 613 33,000  Level FlightAware ADS-B
Sat 01:33:23 AM 43.4540 -69.5330 52° Northeast 538 619 33,000  Level FlightAware ADS-B
Sat 01:34:03 AM 43.5140 -69.4240 53° Northeast 539 620 33,000  Level FlightAware ADS-B
Sat 01:34:48 AM 43.5810 -69.3030 53° Northeast 539 620 33,000  Level FlightAware ADS-B
Sat 01:35:47 AM 43.6600 -69.1620 52° Northeast 539 620 33,000  Level FlightAware ADS-B
Sat 01:36:57 AM 43.7620 -68.9710 53° Northeast 538 619 33,000  Level FlightAware ADS-B
Sat 01:37:34 AM 43.8090 -68.8850 53° Northeast 538 619 33,000  Level FlightAware ADS-B
Sat 01:38:22 AM 43.8700 -68.7720 53° Northeast 538 619 33,000  Level FlightAware ADS-B
Sat 01:38:58 AM 43.9160 -68.6880 53° Northeast 538 619 33,000  Level FlightAware ADS-B
Sat 01:39:35 AM 43.9630 -68.6010 53° Northeast 538 619 33,000  Level FlightAware ADS-B
Sat 01:40:24 AM 44.0890 -68.3660 53° Northeast 544 626 33,000  Level FlightAware ADS-B
Sat 01:41:02 AM 44.1440 -68.2620 54° Northeast 545 627 33,000  Level FlightAware ADS-B
Sat 01:41:50 AM 44.2180 -68.1220 54° Northeast 547 629 33,000  Level FlightAware ADS-B
Sat 01:42:26 AM 44.2710 -68.0200 54° Northeast 548 631 33,000  Level FlightAware ADS-B
Sat 01:43:15 AM 44.3460 -67.8780 54° Northeast 549 632 33,000  Level FlightAware ADS-B
Sat 01:43:54 AM 44.4040 -67.7670 54° Northeast 550 633 33,000  Level FlightAware ADS-B
Sat 01:44:38 AM 44.4690 -67.6420 54° Northeast 550 633 33,000  Level FlightAware ADS-B
Sat 01:45:16 AM 44.5260 -67.5310 54° Northeast 552 635 33,000  Level FlightAware ADS-B
Sat 01:46:00 AM 44.5920 -67.4020 54° Northeast 552 635 33,000  Level FlightAware ADS-B
Sat 01:46:40 AM 44.6510 -67.2880 54° Northeast 552 635 33,000  Level FlightAware ADS-B
Sat 01:47:22 AM 44.7090 -67.1740 54° Northeast 552 635 33,000  Level FlightAware ADS-B
Sat 01:48:06 AM 44.7790 -67.0360 54° Northeast 552 635 33,000  Level FlightAware ADS-B
Sat 01:48:49 AM 44.8430 -66.9080 55° Northeast 552 635 33,000  Level FlightAware ADS-B
Sat 01:49:46 AM 44.9270 -66.7400 55° Northeast 553 636 33,000  Level FlightAware ADS-B
Sat 01:50:28 AM 44.9900 -66.6150 54° Northeast 554 638 33,000  Level FlightAware ADS-B
Sat 01:51:10 AM 45.0500 -66.4960 54° Northeast 554 638 33,000  Level FlightAware ADS-B
Sat 01:51:50 AM 45.1100 -66.3740 55° Northeast 554 638 33,000  Level FlightAware ADS-B
Sat 01:52:34 AM 45.1740 -66.2430 55° Northeast 557 641 33,000  Level FlightAware ADS-B
Sat 01:53:14 AM 45.2330 -66.1230 55° Northeast 558 642 33,000  Level FlightAware ADS-B
Sat 01:53:58 AM 45.2980 -65.9910 55° Northeast 560 644 33,000  Level FlightAware ADS-B
Sat 01:54:38 AM 45.3570 -65.8690 55° Northeast 561 646 33,000  Level FlightAware ADS-B
Sat 01:55:34 AM 45.4360 -65.7060 55° Northeast 562 647 33,000  Level FlightAware ADS-B
Sat 01:56:18 AM 45.5040 -65.5660 55° Northeast 564 649 33,000  Level FlightAware ADS-B
Sat 01:56:58 AM 45.5630 -65.4420 56° Northeast 567 652 33,000  Level FlightAware ADS-B
Sat 01:57:40 AM 45.6230 -65.3160 56° Northeast 569 655 33,000  Level FlightAware ADS-B
Sat 01:58:20 AM 45.6820 -65.1910 56° Northeast 571 657 33,000  Level FlightAware ADS-B
Sat 01:59:06 AM 45.7530 -65.0410 56° Northeast 573 659 33,000  Level FlightAware ADS-B
Sat 01:59:47 AM 45.8120 -64.9160 56° Northeast 574 661 33,000  Level FlightAware ADS-B
Sat 02:00:23 AM 45.8480 -64.8370 57° Northeast 575 662 33,000  Level FlightAware ADS-B
Sat 02:01:12 AM 45.9390 -64.6410 56° Northeast 577 664 33,000  Level FlightAware ADS-B
Sat 02:01:49 AM 45.9860 -64.5410 56° Northeast 577 664 33,000  Level FlightAware ADS-B
Sat 02:02:38 AM 46.0480 -64.4080 56° Northeast 577 664 33,000  Level FlightAware ADS-B
Sat 02:03:14 AM 46.0940 -64.3110 56° Northeast 577 664 33,000  Level FlightAware ADS-B
Sat 02:04:01 AM 46.1530 -64.1830 56° Northeast 577 664 33,000  Level FlightAware ADS-B
Sat 02:04:37 AM 46.1990 -64.0850 56° Northeast 577 664 33,000  Level FlightAware ADS-B
Sat 02:05:26 AM 46.2610 -63.9520 56° Northeast 577 664 33,000  Level FlightAware ADS-B
Sat 02:06:03 AM 46.3080 -63.8510 56° Northeast 577 664 33,000  Level FlightAware ADS-B
Sat 02:06:39 AM 46.3540 -63.7530 56° Northeast 577 664 33,000  Level FlightAware ADS-B
Sat 02:07:27 AM 46.4150 -63.6220 56° Northeast 577 664 33,000  Level FlightAware ADS-B
Sat 02:08:04 AM 46.4620 -63.5210 56° Northeast 577 664 33,000  Level FlightAware ADS-B
Sat 02:08:52 AM 46.5230 -63.3900 56° Northeast 577 664 33,000  Level FlightAware ADS-B
Sat 02:09:51 AM 46.5970 -63.2290 56° Northeast 577 664 33,000  Level FlightAware ADS-B
Sat 02:10:49 AM 46.6710 -63.0700 56° Northeast 577 664 33,000  Level FlightAware ADS-B
Sat 02:11:40 AM 46.9667 -62.6833 56° Northeast 590 679 33,000  Level Gander Center
Sat 02:11:56 AM 46.9833 -62.6333 64° Northeast 590 679 33,000  Level Moncton Center
Sat 02:12:41 AM 47.0500 -62.4833 57° Northeast 590 679 33,000  Level Gander Center
Sat 02:13:41 AM 47.1667 -62.2833 49° Northeast 600 690 33,000  Level Gander Center
Sat 02:13:56 AM 47.2000 -62.2333 46° Northeast 600 690 33,000  Level Moncton Center
Sat 02:14:41 AM 47.2667 -62.1000 54° Northeast 600 690 33,000  Level Gander Center
Sat 02:14:56 AM 47.2833 -62.0333 70° East 600 690 33,000  Level Moncton Center
Sat 02:15:56 AM 47.4000 -61.8167 51° Northeast 600 690 33,000  Level Moncton Center
Sat 02:16:56 AM 47.5000 -61.6500 48° Northeast 610 702 33,000  Level Moncton Center
Sat 02:17:40 AM 47.5667 -61.5000 57° Northeast 610 702 33,000  Level Gander Center
Sat 02:18:40 AM 47.6833 -61.2833 51° Northeast 610 702 33,000  Level Gander Center
Sat 02:18:56 AM 47.7000 -61.2333 64° Northeast 610 702 33,000  Level Moncton Center
Sat 02:19:56 AM 47.8000 -61.0333 53° Northeast 610 702 33,000  Level Moncton Center
Sat 02:20:56 AM 47.9167 -60.8167 51° Northeast 610 702 33,000  Level Moncton Center
Sat 02:21:56 AM 48.0000 -60.6167 58° Northeast 610 702 33,000  Level Moncton Center
Sat 02:22:40 AM 48.0833 -60.4500 53° Northeast 610 702 33,000  Level Gander Center
Sat 02:23:40 AM 48.1833 -60.2500 53° Northeast 610 702 33,000  Level Gander Center
Sat 02:23:56 AM 48.2167 -60.2000 45° Northeast 610 702 33,000  Level Moncton Center
Sat 02:24:56 AM 48.3000 -59.9833 60° Northeast 610 702 33,000  Level Moncton Center
Sat 02:25:40 AM 48.3667 -59.8500 53° Northeast 610 702 33,000  Level Gander Center
Sat 02:25:56 AM 48.4000 -59.7833 53° Northeast 610 702 33,000  Level Moncton Center
Sat 02:26:56 AM 48.4833 -59.6000 56° Northeast 610 702 33,000  Level Moncton Center
Sat 02:27:40 AM 48.5667 -59.4167 55° Northeast 610 702 33,000  Level Gander Center
Sat 02:28:40 AM 48.6667 -59.2333 50° Northeast 610 702 33,000  Level Gander Center
Sat 02:28:56 AM 48.6833 -59.1667 69° East 610 702 33,000  Level Moncton Center
Sat 02:29:40 AM 48.7667 -59.0333 46° Northeast 610 702 33,000  Level Gander Center
Sat 02:29:56 AM 48.8000 -58.9500 59° Northeast 610 702 33,000  Level Moncton Center
Sat 02:30:56 AM 48.8833 -58.7333 60° Northeast 610 702 33,000  Level Moncton Center
Sat 02:31:40 AM 48.9667 -58.5833 50° Northeast 610 702 33,000  Level Gander Center
Sat 02:31:56 AM 48.9833 -58.5167 69° East 610 702 33,000  Level Moncton Center
Sat 02:32:56 AM 49.0833 -58.3167 53° Northeast 610 702 33,000  Level Moncton Center
Sat 02:33:56 AM 49.1667 -58.1000 59° Northeast 610 702 33,000  Level Moncton Center
Sat 02:34:56 AM 49.2500 -57.8500 63° Northeast 610 702 33,000  Level Moncton Center
Sat 02:35:40 AM 49.3333 -57.6833 52° Northeast 610 702 33,000  Level Gander Center
Sat 02:36:40 AM 49.4167 -57.4833 57° Northeast 610 702 33,000  Level Gander Center
Sat 02:37:40 AM 49.5167 -57.2333 58° Northeast 610 702 33,000  Level Gander Center
Sat 02:38:40 AM 49.5833 -57.0333 63° Northeast 610 702 33,000  Level Gander Center
Sat 02:39:40 AM 49.6833 -56.8167 54° Northeast 610 702 33,000  Level Gander Center
Sat 02:39:56 AM 49.7000 -56.7333 73° East 610 702 33,000  Level Moncton Center
Sat 02:40:40 AM 49.7667 -56.5667 58° Northeast 610 702 33,000  Level Gander Center
Sat 02:41:40 AM 49.8500 -56.3500 59° Northeast 610 702 33,000  Level Gander Center
Sat 02:41:56 AM 49.8833 -56.2833 52° Northeast 610 702 33,000  Level Moncton Center
Sat 02:42:40 AM 49.9333 -56.1167 65° Northeast 610 702 33,000  Level Gander Center
Sat 02:43:40 AM 50.0333 -55.9000 54° Northeast 610 702 33,000  Level Gander Center
Sat 02:44:40 AM 50.1167 -55.6500 62° Northeast 610 702 33,000  Level Gander Center
Sat 02:44:56 AM 50.1333 -55.5833 69° East 610 702 33,000  Level Moncton Center
Sat 02:45:56 AM 50.2167 -55.3833 57° Northeast 610 702 33,000  Level Moncton Center
Sat 02:46:40 AM 50.2833 -55.2000 60° Northeast 610 702 33,000  Level Gander Center
Sat 02:47:40 AM 50.3667 -54.9667 61° Northeast 610 702 33,000  Level Gander Center
Sat 02:48:40 AM 50.4333 -54.7333 66° East 620 713 33,000  Level Gander Center
Sat 02:48:56 AM 50.4667 -54.6833 44° Northeast 610 702 33,000  Level Moncton Center
Sat 02:49:56 AM 50.5500 -54.4500 61° Northeast 610 702 33,000  Level Moncton Center
Sat 02:50:40 AM 50.6167 -54.2667 60° Northeast 610 702 33,000  Level Gander Center
Sat 02:51:40 AM 50.6833 -54.0500 64° Northeast 610 702 33,000  Level Gander Center
Sat 02:51:56 AM 50.7000 -53.9667 72° East 610 702 33,000  Level Moncton Center
Sat 02:52:40 AM 50.7667 -53.8000 58° Northeast 610 702 33,000  Level Gander Center
Sat 02:53:40 AM 50.8500 -53.5667 60° Northeast 610 702 33,000  Level Gander Center
Sat 02:54:40 AM 50.9333 -53.3167 62° Northeast 610 702 33,000  Level Gander Center
Sat 02:54:56 AM 50.9500 -53.2333 72° East 620 713 33,000  Level Moncton Center
Sat 02:55:56 AM 51.0167 -53.0000 65° Northeast 610 702 33,000  Level Moncton Center
Sat 02:56:40 AM 51.0833 -52.8500 55° Northeast 610 702 33,000  Level Gander Center
Sat 02:57:40 AM 51.1667 -52.6000 62° Northeast 610 702 33,000  Level Gander Center
Sat 02:57:56 AM 51.1833 -52.5333 68° East 620 713 33,000  Level Moncton Center
Sat 02:58:40 AM 51.2500 -52.3667 57° Northeast 610 702 33,000  Level Gander Center
Sat 02:58:56 AM 51.2667 -52.2667 75° East 620 713 33,000  Level Moncton Center
Sat 02:59:56 AM 51.3500 -52.0333 60° Northeast 620 713 33,000  Level Moncton Center
Sat 03:00:40 AM 51.4000 -51.8833 62° Northeast 610 702 33,000  Level Gander Center
Sat 03:01:40 AM 51.4833 -51.6167 63° Northeast 610 702 33,000  Level Gander Center
Sat 03:02:40 AM 51.5667 -51.3833 60° Northeast 610 702 33,000  Level Gander Center
Sat 03:03:40 AM 51.6333 -51.1333 67° East 610 702 33,000  Level Gander Center
Sat 03:04:40 AM 51.7000 -50.9000 65° Northeast 600 690 33,000  Level Gander Center
Sat 03:05:40 AM 51.7833 -50.6667 60° Northeast 610 702 33,000  Level Gander Center
Sat 03:06:40 AM 51.8500 -50.4000 68° East 610 702 33,000  Level Gander Center
Sat 03:08:00 AM 51.9533 -50.1253 59° Northeast  Level FlightAware Approximate
Sat 03:10:21 AM 52.0000 -50.0000 77° East 583 671 33,000  Level ETMS Enhanced Traffic Management System
Sat 03:15:00 AM 52.2013 -48.4836 77° East  Level FlightAware Approximate
Sat 03:16:00 AM 52.2800 -47.9353 78° East 583 671 33,000  Level FlightAware Transoceanic
Sat 03:17:00 AM 52.3125 -47.6755 79° East 583 671 33,000  Level FlightAware Transoceanic
Sat 03:18:00 AM 52.3444 -47.4152 79° East 583 671 33,000  Level FlightAware Transoceanic
Sat 03:19:00 AM 52.3757 -47.1546 79° East 583 671 33,000  Level FlightAware Transoceanic
Sat 03:20:00 AM 52.4064 -46.8937 79° East 583 671 33,000  Level FlightAware Transoceanic
Sat 03:21:00 AM 52.4366 -46.6323 79° East 583 671 33,000  Level FlightAware Transoceanic
Sat 03:22:00 AM 52.4662 -46.3706 80° East 583 671 33,000  Level FlightAware Transoceanic
Sat 03:23:00 AM 52.4952 -46.1086 80° East 583 671 33,000  Level FlightAware Transoceanic
Sat 03:24:00 AM 52.5236 -45.8462 80° East 583 671 33,000  Level FlightAware Transoceanic
Sat 03:25:00 AM 52.5515 -45.5834 80° East 583 671 33,000  Level FlightAware Transoceanic
Sat 03:26:00 AM 52.5788 -45.3204 80° East 583 671 33,000  Level FlightAware Transoceanic
Sat 03:27:00 AM 52.6054 -45.0570 81° East 583 671 33,000  Level FlightAware Transoceanic
Sat 03:28:00 AM 52.6315 -44.7933 81° East 583 671 33,000  Level FlightAware Transoceanic
Sat 03:29:00 AM 52.6571 -44.5293 81° East 583 671 33,000  Level FlightAware Transoceanic
Sat 03:30:00 AM 52.6820 -44.2650 81° East 583 671 33,000  Level FlightAware Transoceanic
Sat 03:31:00 AM 52.7063 -44.0004 81° East 583 671 33,000  Level FlightAware Transoceanic
Sat 03:32:00 AM 52.7301 -43.7355 82° East 583 671 33,000  Level FlightAware Transoceanic
Sat 03:33:00 AM 52.7532 -43.4703 82° East 583 671 33,000  Level FlightAware Transoceanic
Sat 03:34:00 AM 52.7758 -43.2048 82° East 583 671 33,000  Level FlightAware Transoceanic
Sat 03:35:00 AM 52.7977 -42.9391 82° East 583 671 33,000  Level FlightAware Transoceanic
Sat 03:36:00 AM 52.8191 -42.6731 83° East 583 671 33,000  Level FlightAware Transoceanic
Sat 03:37:00 AM 52.8399 -42.4068 83° East 583 671 33,000  Level FlightAware Transoceanic
Sat 03:38:00 AM 52.8601 -42.1403 83° East 583 671 33,000  Level FlightAware Transoceanic
Sat 03:39:00 AM 52.8797 -41.8736 83° East 583 671 33,000  Level FlightAware Transoceanic
Sat 03:40:00 AM 52.8987 -41.6066 83° East 583 671 33,000  Level FlightAware Transoceanic
Sat 03:41:00 AM 52.9171 -41.3393 84° East 583 671 33,000  Level FlightAware Transoceanic
Sat 03:42:00 AM 52.9348 -41.0719 84° East 583 671 33,000  Level FlightAware Transoceanic
Sat 03:43:00 AM 52.9520 -40.8042 84° East 583 671 33,000  Level FlightAware Transoceanic
Sat 03:44:00 AM 52.9686 -40.5364 84° East 583 671 33,000  Level FlightAware Transoceanic
Sat 03:45:00 AM 52.9846 -40.2683 84° East 583 671 33,000  Level FlightAware Transoceanic
Sat 03:46:00 AM 52.9981 -40.0339 84° East  Level FlightAware Approximate
Sat 03:47:00 AM 53.0111 -39.7995 85° East  Level FlightAware Approximate
Sat 03:48:00 AM 53.0233 -39.8384 76° East  Level FlightAware Approximate
Sat 03:49:00 AM 53.0560 -39.6091 77° East  Level FlightAware Approximate
Sat 03:50:00 AM 53.0882 -39.3794 77° East  Level FlightAware Approximate
Sat 03:51:00 AM 53.1199 -39.1494 77° East  Level FlightAware Approximate
Sat 03:52:00 AM 53.1512 -38.9191 77° East  Level FlightAware Approximate
Sat 03:52:00 AM 53.0000 -40.0000 76° East 529 609 33,000  Level ETMS Enhanced Traffic Management System
Sat 03:53:00 AM 53.1821 -38.6884 77° East  Level FlightAware Approximate
Sat 03:54:00 AM 53.2126 -38.4574 78° East  Level FlightAware Approximate
Sat 03:55:00 AM 53.2425 -38.2261 78° East  Level FlightAware Approximate
Sat 03:56:00 AM 53.2721 -37.9944 78° East  Level FlightAware Approximate
Sat 03:57:00 AM 53.3011 -37.7624 78° East  Level FlightAware Approximate
Sat 03:58:00 AM 53.3497 -37.3661 79° East 529 609 33,000  Level FlightAware Transoceanic
Sat 03:59:00 AM 53.3786 -37.1246 79° East 529 609 33,000  Level FlightAware Transoceanic
Sat 04:00:00 AM 53.4070 -36.8828 79° East 529 609 33,000  Level FlightAware Transoceanic
Sat 04:01:00 AM 53.4349 -36.6406 79° East 529 609 33,000  Level FlightAware Transoceanic
Sat 04:02:00 AM 53.4623 -36.3982 79° East 529 609 33,000  Level FlightAware Transoceanic
Sat 04:03:00 AM 53.4893 -36.1554 80° East 529 609 33,000  Level FlightAware Transoceanic
Sat 04:04:00 AM 53.5157 -35.9123 80° East 529 609 33,000  Level FlightAware Transoceanic
Sat 04:05:00 AM 53.5417 -35.6689 80° East 529 609 33,000  Level FlightAware Transoceanic
Sat 04:06:00 AM 53.5671 -35.4252 80° East 529 609 33,000  Level FlightAware Transoceanic
Sat 04:07:00 AM 53.5921 -35.1812 80° East 529 609 33,000  Level FlightAware Transoceanic
Sat 04:08:00 AM 53.6165 -34.9370 81° East 529 609 33,000  Level FlightAware Transoceanic
Sat 04:09:00 AM 53.6405 -34.6924 81° East 529 609 33,000  Level FlightAware Transoceanic
Sat 04:10:00 AM 53.6640 -34.4476 81° East 529 609 33,000  Level FlightAware Transoceanic
Sat 04:11:00 AM 53.6869 -34.2025 81° East 529 609 33,000  Level FlightAware Transoceanic
Sat 04:12:00 AM 53.7094 -33.9571 81° East 529 609 33,000  Level FlightAware Transoceanic
Sat 04:13:00 AM 53.7314 -33.7115 82° East 529 609 33,000  Level FlightAware Transoceanic
Sat 04:14:00 AM 53.7528 -33.4657 82° East 529 609 33,000  Level FlightAware Transoceanic
Sat 04:15:00 AM 53.7738 -33.2196 82° East 529 609 33,000  Level FlightAware Transoceanic
Sat 04:16:00 AM 53.7942 -32.9732 82° East 529 609 33,000  Level FlightAware Transoceanic
Sat 04:17:00 AM 53.8142 -32.7266 82° East 529 609 33,000  Level FlightAware Transoceanic
Sat 04:18:00 AM 53.8336 -32.4798 82° East 529 609 33,000  Level FlightAware Transoceanic
Sat 04:19:00 AM 53.8526 -32.2327 83° East 529 609 33,000  Level FlightAware Transoceanic
Sat 04:20:00 AM 53.8710 -31.9855 83° East 529 609 33,000  Level FlightAware Transoceanic
Sat 04:21:00 AM 53.8889 -31.7380 83° East 529 609 33,000  Level FlightAware Transoceanic
Sat 04:22:00 AM 53.9063 -31.4903 83° East 529 609 33,000  Level FlightAware Transoceanic
Sat 04:23:00 AM 53.9232 -31.2424 83° East 529 609 33,000  Level FlightAware Transoceanic
Sat 04:24:00 AM 53.9396 -30.9943 84° East 529 609 33,000  Level FlightAware Transoceanic
Sat 04:25:00 AM 53.9554 -30.7460 84° East 529 609 33,000  Level FlightAware Transoceanic
Sat 04:26:00 AM 53.9708 -30.4975 84° East 529 609 33,000  Level FlightAware Transoceanic
Sat 04:27:00 AM 53.9857 -30.2488 84° East 529 609 33,000  Level FlightAware Transoceanic
Sat 04:28:00 AM 53.9995 -30.0090 84° East  Level FlightAware Approximate
Sat 04:29:00 AM 54.0129 -29.7690 84° East  Level FlightAware Approximate
Sat 04:30:00 AM 54.0090 -29.7775 86° East  Level FlightAware Approximate
Sat 04:31:00 AM 54.0183 -29.5368 86° East  Level FlightAware Approximate
Sat 04:31:00 AM 54.0000 -30.0000 86° East 528 608 33,000  Level ETMS Enhanced Traffic Management System
Sat 04:32:00 AM 54.0271 -29.2961 86° East  Level FlightAware Approximate
Sat 04:33:00 AM 54.0354 -29.0553 87° East  Level FlightAware Approximate
Sat 04:34:00 AM 54.0432 -28.8144 87° East  Level FlightAware Approximate
Sat 04:35:00 AM 54.0506 -28.5734 87° East  Level FlightAware Approximate
Sat 04:36:00 AM 54.0574 -28.3323 87° East  Level FlightAware Approximate
Sat 04:37:00 AM 54.0724 -27.7532 88° East 528 608 33,000  Level FlightAware Transoceanic
Sat 04:38:00 AM 54.0778 -27.5031 88° East 528 608 33,000  Level FlightAware Transoceanic
Sat 04:39:00 AM 54.0828 -27.2530 88° East 528 608 33,000  Level FlightAware Transoceanic
Sat 04:40:00 AM 54.0872 -27.0028 88° East 528 608 33,000  Level FlightAware Transoceanic
Sat 04:41:00 AM 54.0911 -26.7526 89° East 528 608 33,000  Level FlightAware Transoceanic
Sat 04:42:00 AM 54.0945 -26.5023 89° East 528 608 33,000  Level FlightAware Transoceanic
Sat 04:43:00 AM 54.0973 -26.2519 89° East 528 608 33,000  Level FlightAware Transoceanic
Sat 04:44:00 AM 54.0997 -26.0016 89° East 528 608 33,000  Level FlightAware Transoceanic
Sat 04:45:00 AM 54.1015 -25.7512 89° East 528 608 33,000  Level FlightAware Transoceanic
Sat 04:46:00 AM 54.1028 -25.5008 90° East 528 608 33,000  Level FlightAware Transoceanic
Sat 04:47:00 AM 54.1035 -25.2504 90° East 528 608 33,000  Level FlightAware Transoceanic
Sat 04:48:00 AM 54.1038 -25.0000 90° East 528 608 33,000  Level FlightAware Transoceanic
Sat 04:49:00 AM 54.1035 -24.7496 90° East 528 608 33,000  Level FlightAware Transoceanic
Sat 04:50:00 AM 54.1028 -24.4992 90° East 528 608 33,000  Level FlightAware Transoceanic
Sat 04:51:00 AM 54.1015 -24.2488 91° East 528 608 33,000  Level FlightAware Transoceanic
Sat 04:52:00 AM 54.0997 -23.9984 91° East 528 608 33,000  Level FlightAware Transoceanic
Sat 04:53:00 AM 54.0973 -23.7481 91° East 528 608 33,000  Level FlightAware Transoceanic
Sat 04:54:00 AM 54.0945 -23.4977 91° East 528 608 33,000  Level FlightAware Transoceanic
Sat 04:55:00 AM 54.0911 -23.2474 91° East 528 608 33,000  Level FlightAware Transoceanic
Sat 04:56:00 AM 54.0872 -22.9972 92° East 528 608 33,000  Level FlightAware Transoceanic
Sat 04:57:00 AM 54.0828 -22.7470 92° East 528 608 33,000  Level FlightAware Transoceanic
Sat 04:58:00 AM 54.0778 -22.4969 92° East 528 608 33,000  Level FlightAware Transoceanic
Sat 04:59:00 AM 54.0724 -22.2468 92° East 528 608 33,000  Level FlightAware Transoceanic
Sat 05:00:00 AM 54.0664 -21.9968 92° East 528 608 33,000  Level FlightAware Transoceanic
Sat 05:01:00 AM 54.0599 -21.7469 93° East 528 608 33,000  Level FlightAware Transoceanic
Sat 05:02:00 AM 54.0529 -21.4970 93° East 528 608 33,000  Level FlightAware Transoceanic
Sat 05:03:00 AM 54.0454 -21.2473 93° East 528 608 33,000  Level FlightAware Transoceanic
Sat 05:04:00 AM 54.0373 -20.9976 93° East 528 608 33,000  Level FlightAware Transoceanic
Sat 05:05:00 AM 54.0288 -20.7480 93° East 528 608 33,000  Level FlightAware Transoceanic
Sat 05:06:00 AM 54.0197 -20.4986 94° East 528 608 33,000  Level FlightAware Transoceanic
Sat 05:07:00 AM 54.0101 -20.2492 94° East 528 608 33,000 40 Level FlightAware Transoceanic
Sat 05:08:00 AM 54.0004 -20.0087 94° East  Level FlightAware Approximate
Sat 05:09:00 AM 53.9902 -19.7683 94° East  Level FlightAware Approximate
Sat 05:10:00 AM 53.9839 -19.7781 97° East  Level FlightAware Approximate
Sat 05:11:00 AM 53.9661 -19.5391 97° East  Level FlightAware Approximate
Sat 05:12:00 AM 53.9478 -19.3004 97° East  Level FlightAware Approximate
Sat 05:13:00 AM 53.9290 -19.0618 98° East  Level FlightAware Approximate
Sat 05:14:00 AM 53.9098 -18.8238 98° East  Level FlightAware Approximate
Sat 05:15:00 AM 53.8901 -18.5861 98° East  Level FlightAware Approximate
Sat 05:16:00 AM 53.8700 -18.3486 98° East  Level FlightAware Approximate
Sat 05:17:00 AM 53.8493 -18.1113 98° East  Level FlightAware Approximate
Sat 05:18:00 AM 53.8283 -17.8743 98° East  Level FlightAware Approximate
Sat 05:19:00 AM 53.8067 -17.6375 99° East  Level FlightAware Approximate
Sat 05:20:00 AM 53.7847 -17.4009 99° East  Level FlightAware Approximate
Sat 05:21:00 AM 53.7622 -17.1646 99° East  Level FlightAware Approximate
Sat 05:22:00 AM 53.7393 -16.9286 99° East  Level FlightAware Approximate
Sat 05:23:00 AM 53.7159 -16.6928 99° East  Level FlightAware Approximate
Sat 05:24:00 AM 53.6920 -16.4573 100° East  Level FlightAware Approximate
Sat 05:25:00 AM 53.6676 -16.2220 100° East  Level FlightAware Approximate
Sat 05:26:00 AM 53.6428 -15.9871 100° East  Level FlightAware Approximate
Sat 05:27:00 AM 53.6176 -15.7523 100° East  Level FlightAware Approximate
Sat 05:28:00 AM 53.5919 -15.5179 100° East  Level FlightAware Approximate
Sat 05:29:00 AM 53.5657 -15.2838 101° East  Level FlightAware Approximate
Sat 05:30:00 AM 53.5391 -15.0500 101° East  Level FlightAware Approximate
Sat 05:31:00 AM 53.5115 -14.8166 101° East  Level FlightAware Approximate
Sat 05:31:10 AM 53.9840 -14.4460 101° East 536 617 34,000  Level FlightAware ADS-B
Sat 05:32:00 AM 53.4832 -14.5836 101° East  Level FlightAware Approximate
Sat 05:32:01 AM 53.9430 -14.2490 109° East 534 615 34,000  Level FlightAware ADS-B
Sat 05:33:00 AM 53.8900 -14.0090 110° East 536 617 34,900 577 Climbing FlightAware ADS-B
Sat 05:33:45 AM 53.8490 -13.8380 112° Southeast 537 618 35,000 70 Climbing FlightAware ADS-B
Sat 05:34:26 AM 53.8120 -13.6870 112° Southeast 535 616 35,000  Level FlightAware ADS-B
Sat 05:35:00 AM 53.7800 -13.5550 112° Southeast 535 616 35,000  Level FlightAware ADS-B
Sat 05:35:50 AM 53.7300 -13.3540 113° Southeast 535 616 35,000  Level FlightAware ADS-B
Sat 05:36:45 AM 53.6790 -13.1450 112° Southeast 539 620 35,000  Level FlightAware ADS-B
Sat 05:37:25 AM 53.6400 -12.9870 113° Southeast 540 621 35,000  Level FlightAware ADS-B
Sat 05:38:10 AM 53.5960 -12.8090 113° Southeast 543 625 35,000  Level FlightAware ADS-B
Sat 05:38:50 AM 53.5570 -12.6490 112° Southeast 544 626 35,000  Level FlightAware ADS-B
Sat 05:39:30 AM 53.5190 -12.4940 112° Southeast 544 626 35,000  Level FlightAware ADS-B
Sat 05:40:15 AM 53.4750 -12.3200 113° Southeast 545 627 35,000  Level FlightAware ADS-B
Sat 05:40:59 AM 53.4370 -12.1660 112° Southeast 546 628 35,000  Level FlightAware ADS-B
Sat 05:41:55 AM 53.3770 -11.9290 113° Southeast 547 629 35,000  Level FlightAware ADS-B
Sat 05:42:35 AM 53.3380 -11.7720 113° Southeast 547 629 35,000  Level FlightAware ADS-B
Sat 05:43:20 AM 53.2930 -11.5990 113° Southeast 544 626 35,000  Level FlightAware ADS-B
Sat 05:44:00 AM 53.2530 -11.4440 113° Southeast 544 626 35,000  Level FlightAware ADS-B
Sat 05:44:40 AM 53.2130 -11.2860 113° Southeast 544 626 35,000  Level FlightAware ADS-B
Sat 05:45:20 AM 53.1730 -11.1350 114° Southeast 545 627 35,000  Level FlightAware ADS-B
Sat 05:46:00 AM 53.1310 -10.9770 114° Southeast 546 628 35,000  Level FlightAware ADS-B
Sat 05:46:50 AM 53.0800 -10.7860 114° Southeast 546 628 35,000  Level FlightAware ADS-B
Sat 05:47:31 AM 53.0390 -10.6290 113° Southeast 547 629 35,000  Level FlightAware ADS-B
Sat 05:48:15 AM 52.9940 -10.4560 113° Southeast 548 631 35,000  Level FlightAware ADS-B
Sat 05:48:56 AM 52.9530 -10.2990 113° Southeast 548 631 35,000  Level FlightAware ADS-B
Sat 05:49:36 AM 52.9110 -10.1420 114° Southeast 551 634 35,000  Level FlightAware ADS-B
Sat 05:50:46 AM 52.9270 -10.2020 294° West 551 634 35,000  Level FlightAware ADS-B
Sat 05:51:30 AM 52.7890 -9.7020 114° Southeast 552 635 35,000  Level FlightAware ADS-B
Sat 05:52:04 AM 52.7530 -9.5760 115° Southeast 551 634 35,000  Level FlightAware ADS-B
Sat 05:52:44 AM 52.7080 -9.4230 116° Southeast 553 636 35,000  Level FlightAware ADS-B
Sat 05:53:21 AM 52.6680 -9.2850 116° Southeast 553 636 35,000  Level FlightAware ADS-B
Sat 05:54:06 AM 52.6190 -9.1180 116° Southeast 555 639 35,000  Level FlightAware ADS-B
Sat 05:54:44 AM 52.5367 -8.9681 116° Southeast 506 582 35,000  Level FlightAware UK
Sat 05:54:46 AM 52.5730 -8.9630 116° Southeast 555 639 35,000  Level FlightAware ADS-B
Sat 05:55:14 AM 52.5026 -8.8542 116° Southeast 504 580 35,000  Level FlightAware UK
Sat 05:55:44 AM 52.4686 -8.7418 116° Southeast 506 582 35,000  Level FlightAware UK
Sat 05:55:45 AM 52.5060 -8.7400 116° Southeast 555 639 35,000  Level FlightAware ADS-B
Sat 05:56:14 AM 52.4344 -8.6284 116° Southeast 506 582 35,000  Level FlightAware UK
Sat 05:56:25 AM 52.4610 -8.5880 116° Southeast 555 639 35,000  Level FlightAware ADS-B
Sat 05:56:44 AM 52.4002 -8.5154 116° Southeast 504 580 35,000  Level FlightAware UK
Sat 05:57:14 AM 52.3707 -8.3979 112° Southeast 508 585 35,000  Level FlightAware UK
Sat 05:57:20 AM 52.4050 -8.3760 112° Southeast 560 644 35,000  Level FlightAware ADS-B
Sat 05:57:44 AM 52.3513 -8.2751 112° Southeast 504 580 35,000  Level FlightAware UK
Sat 05:58:06 AM 52.3820 -8.1800 112° Southeast 564 649 35,000  Level FlightAware ADS-B
Sat 05:58:44 AM 52.3333 -8.0208 112° Southeast 508 585 35,000  Level FlightAware UK
Sat 05:58:46 AM 52.3710 -8.0090 112° Southeast 564 649 35,000  Level FlightAware ADS-B
Sat 05:59:14 AM 52.3248 -7.8941 112° Southeast 504 580 35,000  Level FlightAware UK
Sat 05:59:25 AM 52.3600 -7.8440 112° Southeast 563 648 35,000  Level FlightAware ADS-B
Sat 05:59:44 AM 52.3162 -7.7671 112° Southeast 502 578 35,000  Level FlightAware UK
Sat 06:00:05 AM 52.3490 -7.6750 112° Southeast 564 649 35,000  Level FlightAware ADS-B
Sat 06:00:44 AM 52.2988 -7.5139 112° Southeast 502 578 35,000  Level FlightAware UK
Sat 06:00:51 AM 52.3350 -7.4830 112° Southeast 564 649 35,000  Level FlightAware ADS-B
Sat 06:01:20 AM 52.2875 -7.3622 112° Southeast 502 578 35,000  Level FlightAware UK
Sat 06:01:32 AM 52.3220 -7.3050 112° Southeast 566 651 35,000  Level FlightAware ADS-B
Sat 06:01:50 AM 52.2781 -7.2356 112° Southeast 506 582 35,000  Level FlightAware UK
Sat 06:02:19 AM 52.3080 -7.1100 112° Southeast 567 652 35,000  Level FlightAware ADS-B
Sat 06:02:51 AM 52.2594 -6.9801 112° Southeast 504 580 35,000  Level FlightAware UK
Sat 06:02:59 AM 52.2950 -6.9380 112° Southeast 567 652 35,000  Level FlightAware ADS-B
Sat 06:03:21 AM 52.2495 -6.8531 112° Southeast 506 582 35,000  Level FlightAware UK
Sat 06:03:40 AM 52.2810 -6.7640 112° Southeast 567 652 35,000  Level FlightAware ADS-B
Sat 06:04:20 AM 52.2680 -6.5950 112° Southeast 567 652 35,000  Level FlightAware ADS-B
Sat 06:04:21 AM 52.2296 -6.5987 112° Southeast 504 580 35,000  Level FlightAware UK
Sat 06:04:51 AM 52.2197 -6.4718 112° Southeast 504 580 35,000  Level FlightAware UK
Sat 06:05:06 AM 52.2520 -6.3980 112° Southeast 568 654 35,000  Level FlightAware ADS-B
Sat 06:05:21 AM 52.2091 -6.3452 112° Southeast 502 578 35,000  Level FlightAware UK
Sat 06:05:46 AM 52.2360 -6.2300 112° Southeast 568 654 35,000  Level FlightAware ADS-B
Sat 06:06:15 AM 52.1877 -6.1174 112° Southeast 500 575 35,000  Level FlightAware UK
Sat 06:06:27 AM 52.2200 -6.0580 112° Southeast 570 656 35,000  Level FlightAware ADS-B
Sat 06:06:45 AM 52.1758 -5.9906 112° Southeast 504 580 35,000  Level FlightAware UK
Sat 06:07:11 AM 52.2020 -5.8690 112° Southeast 571 657 35,000  Level FlightAware ADS-B
Sat 06:07:45 AM 52.1520 -5.7352 112° Southeast 504 580 35,000  Level FlightAware UK
Sat 06:07:52 AM 52.1850 -5.6950 112° Southeast 571 657 35,000  Level FlightAware ADS-B
Sat 06:08:15 AM 52.1397 -5.6078 112° Southeast 504 580 35,000  Level FlightAware UK
Sat 06:08:36 AM 52.1670 -5.5080 112° Southeast 572 658 35,000  Level FlightAware ADS-B
Sat 06:09:14 AM 52.1510 -5.3460 112° Southeast 572 658 35,000  Level FlightAware ADS-B
Sat 06:09:15 AM 52.1151 -5.3532 112° Southeast 506 582 35,000  Level FlightAware UK
Sat 06:09:42 AM 52.1390 -5.2270 99° East 571 657 35,000  Level FlightAware ADS-B
Sat 06:09:57 AM 52.0973 -5.1754 99° East 506 582 35,000  Level FlightAware UK
Sat 06:10:27 AM 52.0845 -5.0488 99° East 504 580 35,000  Level FlightAware UK
Sat 06:10:28 AM 52.1180 -5.0310 99° East 570 656 35,000  Level FlightAware ADS-B
Sat 06:10:57 AM 52.0715 -4.9224 99° East 504 580 35,000  Level FlightAware UK
Sat 06:11:27 AM 52.0586 -4.7960 99° East 504 580 35,000  Level FlightAware UK
Sat 06:11:37 AM 52.0880 -4.7440 99° East 570 656 35,000  Level FlightAware ADS-B
Sat 06:11:57 AM 52.0453 -4.6688 99° East 506 582 35,000  Level FlightAware UK
Sat 06:12:19 AM 52.0690 -4.5670 99° East 570 656 35,000  Level FlightAware ADS-B
Sat 06:12:57 AM 52.0184 -4.4161 99° East 502 578 35,000  Level FlightAware UK
Sat 06:13:02 AM 52.0490 -4.3860 99° East 571 657 35,000  Level FlightAware ADS-B
Sat 06:13:35 AM 52.0327 -4.2447 101° East 572 658 35,000  Level FlightAware ADS-B
Sat 06:13:57 AM 51.9905 -4.1637 101° East 502 578 35,000  Level FlightAware UK
Sat 06:14:07 AM 52.0172 -4.1107 101° East 572 658 35,000  Level FlightAware ADS-B
Sat 06:14:39 AM 51.9705 -3.9868 101° East 502 578 35,000  Level FlightAware UK
Sat 06:14:53 AM 51.9946 -3.9150 101° East 572 658 35,000  Level FlightAware ADS-B
Sat 06:15:09 AM 51.9565 -3.8603 101° East 504 580 35,000  Level FlightAware UK
Sat 06:15:41 AM 51.9712 -3.7124 101° East 572 658 35,000  Level FlightAware ADS-B
Sat 06:16:14 AM 51.9549 -3.5736 101° East 573 659 35,000  Level FlightAware ADS-B
Sat 06:16:59 AM 51.9321 -3.3839 101° East 571 657 35,000  Level FlightAware ADS-B
Sat 06:17:32 AM 51.9155 -3.2474 101° East 573 659 35,000  Level FlightAware ADS-B
Sat 06:18:04 AM 51.8988 -3.1121 101° East 573 659 35,000  Level FlightAware ADS-B
Sat 06:18:36 AM 51.8821 -2.9797 101° East 572 658 35,000  Level FlightAware ADS-B
Sat 06:18:58 AM 51.8442 -2.8990 101° East 498 573 35,000  Level FlightAware UK
Sat 06:19:08 AM 51.8650 -2.8449 101° East 576 663 35,000  Level FlightAware ADS-B
Sat 06:19:38 AM 51.8484 -2.7164 102° East 577 664 35,000  Level FlightAware ADS-B
Sat 06:20:08 AM 51.8319 -2.5897 102° East 576 663 35,000  Level FlightAware ADS-B
Sat 06:20:40 AM 51.8150 -2.4556 101° East 576 663 35,000  Level FlightAware ADS-B
Sat 06:21:11 AM 51.7999 -2.3260 101° East 577 664 35,000  Level FlightAware ADS-B
Sat 06:21:42 AM 51.7846 -2.1958 101° East 578 665 35,000  Level FlightAware ADS-B
Sat 06:22:04 AM 51.7513 -2.1113 101° East 502 578 35,000  Level FlightAware UK
Sat 06:22:13 AM 51.7687 -2.0607 101° East 578 665 35,000  Level FlightAware ADS-B
Sat 06:22:44 AM 51.7529 -1.9304 101° East 579 666 35,000  Level FlightAware ADS-B
Sat 06:23:14 AM 51.7374 -1.8028 101° East 580 667 35,000  Level FlightAware ADS-B
Sat 06:23:45 AM 51.7214 -1.6740 101° East 581 669 35,000  Level FlightAware ADS-B
Sat 06:24:15 AM 51.7053 -1.5469 102° East 581 669 35,000  Level FlightAware ADS-B
Sat 06:24:45 AM 51.6890 -1.4184 102° East 580 667 35,000  Level FlightAware ADS-B
Sat 06:25:15 AM 51.6728 -1.2914 102° East 579 666 35,000  Level FlightAware ADS-B
Sat 06:25:45 AM 51.6563 -1.1639 102° East 580 667 35,000  Level FlightAware ADS-B
Sat 06:26:16 AM 51.6396 -1.0357 102° East 581 669 35,000  Level FlightAware ADS-B
Sat 06:26:46 AM 51.6226 -0.9065 102° East 580 667 35,000  Level FlightAware ADS-B
Sat 06:27:18 AM 51.6051 -0.7734 102° East 581 669 35,000  Level FlightAware ADS-B
Sat 06:27:49 AM 51.5878 -0.6445 102° East 582 670 35,000  Level FlightAware ADS-B
Sat 06:28:19 AM 51.5709 -0.5178 102° East 582 670 35,000  Level FlightAware ADS-B
Sat 06:28:49 AM 51.5538 -0.3905 102° East 582 670 35,000  Level FlightAware ADS-B
Sat 06:29:11 AM 51.5276 -0.3018 102° East 496 571 35,000  Level FlightAware UK
Sat 06:29:20 AM 51.5358 -0.2609 102° East 583 671 35,000  Level FlightAware ADS-B
Sat 06:29:50 AM 51.5181 -0.1335 103° East 584 672 35,000  Level FlightAware ADS-B
Sat 06:30:20 AM 51.5001 -0.0048 103° East 585 673 35,000  Level FlightAware ADS-B
Sat 06:30:51 AM 51.4818 0.1242 103° East 585 673 35,000  Level FlightAware ADS-B
Sat 06:31:23 AM 51.4625 0.2608 103° East 586 674 35,000  Level FlightAware ADS-B
Sat 06:31:55 AM 51.4430 0.3973 103° East 586 674 35,000  Level FlightAware ADS-B
Sat 06:32:26 AM 51.4244 0.5247 103° East 585 673 35,000  Level FlightAware ADS-B
Sat 06:32:56 AM 51.4058 0.6532 103° East 583 671 35,000  Level FlightAware ADS-B
Sat 06:33:26 AM 51.3874 0.7800 103° East 583 671 35,000  Level FlightAware ADS-B
Sat 06:33:42 AM 51.3691 0.8438 103° East 500 575 35,000  Level FlightAware UK
Sat 06:33:59 AM 51.3668 0.9179 103° East 581 669 35,000  Level FlightAware ADS-B
Sat 06:34:18 AM 51.3470 0.9953 103° East 496 571 35,000  Level FlightAware UK
Sat 06:34:31 AM 51.3475 1.0483 103° East 579 666 35,000  Level FlightAware ADS-B
Sat 06:35:00 AM 51.3216 1.1700 103° East 494 568 35,000  Level FlightAware UK
Sat 06:35:11 AM 51.3240 1.2080 103° East 576 663 35,000  Level FlightAware ADS-B
Sat 06:35:36 AM 51.2999 1.3188 103° East 492 566 35,000  Level FlightAware UK
Sat 06:35:52 AM 51.2980 1.3770 103° East 574 661 35,000  Level FlightAware ADS-B
Sat 06:36:13 AM 51.2777 1.4678 103° East 486 559 35,000  Level FlightAware UK
Sat 06:36:37 AM 51.2690 1.5630 103° East 572 658 35,000  Level FlightAware ADS-B
Sat 06:37:07 AM 51.2365 1.6830 103° East 486 559 35,000  Level FlightAware UK
Sat 06:37:14 AM 51.2345 1.7087 103° East 554 638 35,000  Level FlightAware ADS-B
Sat 06:37:37 AM 51.2021 1.7922 103° East 490 564 35,000  Level FlightAware UK
Sat 06:37:44 AM 51.1986 1.8197 103° East 552 635 35,000  Level FlightAware ADS-B
Sat 06:38:07 AM 51.1671 1.9016 103° East 492 566 35,000  Level FlightAware UK
Sat 06:38:14 AM 51.1641 1.9286 103° East 554 638 35,000  Level FlightAware ADS-B
Sat 06:38:37 AM 51.1331 2.0112 103° East 490 564 35,000  Level FlightAware UK
Sat 06:38:52 AM 51.1220 2.0663 103° East 554 638 35,000 200 Level FlightAware ADS-B
Sat 06:39:07 AM 51.1005 2.1220 103° East 494 568 35,100 1,200 Climbing FlightAware UK
Sat 06:39:22 AM 51.0884 2.1790 103° East 552 635 35,600 2,000 Climbing FlightAware ADS-B
Sat 06:39:28 AM 51.0823 2.1995 115° Southeast 550 633 35,800 1,235 Climbing FlightAware ADS-B
Sat 06:39:56 AM 51.0520 2.3021 115° Southeast 550 633 36,300 1,077 Climbing FlightAware ADS-B
Sat 06:40:07 AM 51.0397 2.3435 115° Southeast 551 634 36,500 783 Climbing FlightAware ADS-B
Sat 06:40:42 AM 51.0028 2.4691 115° Southeast 555 639 36,900 429 Climbing FlightAware ADS-B
Sat 06:41:17 AM 50.9646 2.5985 115° Southeast 556 640 37,000 76 Climbing FlightAware ADS-B
Sat 06:42:01 AM 50.9115 2.7629 115° Southeast 492 566 37,000  Level FlightAware UK
Sat 06:42:11 AM 50.9034 2.7952 115° Southeast 555 639 37,000  Level FlightAware ADS-B
Sat 06:42:37 AM 50.8699 2.8932 115° Southeast 494 568 37,000  Level FlightAware UK
Sat 06:42:44 AM 50.8651 2.9166 115° Southeast 555 639 37,000  Level FlightAware ADS-B
Sat 06:43:23 AM 50.8213 3.0556 116° Southeast 555 639 37,000  Level FlightAware ADS-B
Sat 06:43:56 AM 50.7828 3.1774 117° Southeast 555 639 37,000  Level FlightAware ADS-B
Sat 06:44:27 AM 50.7472 3.2900 117° Southeast 555 639 37,000  Level FlightAware ADS-B
Sat 06:44:43 AM 50.7257 3.3517 117° Southeast 500 575 37,000  Level FlightAware UK
Sat 06:44:59 AM 50.7109 3.4043 117° Southeast 552 635 37,000  Level FlightAware ADS-B
Sat 06:45:19 AM 50.6846 3.4816 117° Southeast 502 578 37,000  Level FlightAware UK
Sat 06:45:42 AM 50.6622 3.5570 117° Southeast 544 626 37,000  Level FlightAware ADS-B
Sat 06:46:19 AM 50.6166 3.6932 117° Southeast 494 568 37,000  Level FlightAware UK
Sat 06:46:34 AM 50.6037 3.7392 117° Southeast 541 623 37,000  Level FlightAware ADS-B
Sat 06:47:01 AM 50.5692 3.8405 117° Southeast 490 564 37,000  Level FlightAware UK
Sat 06:47:13 AM 50.5588 3.8784 117° Southeast 538 619 37,000  Level FlightAware ADS-B
Sat 06:48:04 AM 50.5025 4.0514 117° Southeast 536 617 37,000  Level FlightAware ADS-B
Sat 06:48:40 AM 50.4640 4.1710 117° Southeast 536 617 37,000  Level FlightAware ADS-B
Sat 06:48:56 AM 50.4412 4.2383 117° Southeast 1 1 37,000  Level FlightAware UK
Sat 06:49:24 AM 50.4140 4.3220 117° Southeast 536 617 37,000  Level FlightAware ADS-B
Sat 06:49:44 AM 50.3892 4.3974 117° Southeast 537 618 37,000  Level FlightAware ADS-B
Sat 06:50:02 AM 50.3637 4.4626 117° Southeast 1 1 37,000  Level FlightAware UK
Sat 06:50:30 AM 50.3359 4.5583 117° Southeast 537 618 37,000  Level FlightAware ADS-B
Sat 06:51:05 AM 50.2959 4.6794 117° Southeast 536 617 37,000  Level FlightAware ADS-B
Sat 06:51:42 AM 50.2547 4.8032 117° Southeast 534 615 37,000  Level FlightAware ADS-B
Sat 06:52:14 AM 50.2182 4.9128 117° Southeast 533 613 37,000  Level FlightAware ADS-B
Sat 06:52:44 AM 50.1839 5.0158 117° Southeast 532 612 37,000  Level FlightAware ADS-B
Sat 06:53:20 AM 50.1431 5.1378 118° Southeast 531 611 37,000  Level FlightAware ADS-B
Sat 06:53:56 AM 50.1026 5.2584 118° Southeast 530 610 37,000  Level FlightAware ADS-B
Sat 06:54:29 AM 50.0646 5.3717 118° Southeast 530 610 37,000  Level FlightAware ADS-B
Sat 06:55:32 AM 49.9931 5.5829 118° Southeast 527 606 37,000  Level FlightAware ADS-B
Sat 06:56:18 AM 49.9410 5.7360 118° Southeast 527 606 37,000  Level FlightAware ADS-B
Sat 06:57:00 AM 49.8950 5.8670 119° Southeast 526 605 37,000  Level FlightAware ADS-B
Sat 06:57:38 AM 49.8500 5.9970 118° Southeast 526 605 37,000  Level FlightAware ADS-B
Sat 06:58:03 AM 49.8201 6.0827 118° Southeast 526 605 37,000  Level FlightAware ADS-B
Sat 06:59:33 AM 49.7090 6.3560 122° Southeast 515 593 37,000  Level FlightAware ADS-B
Sat 07:00:28 AM 49.6330 6.5280 124° Southeast 522 601 37,000  Level FlightAware ADS-B
Sat 07:01:08 AM 49.5820 6.6490 123° Southeast 524 603 37,000  Level FlightAware ADS-B
Sat 07:01:53 AM 49.5180 6.7980 123° Southeast 525 604 37,000  Level FlightAware ADS-B
Sat 07:02:33 AM 49.4650 6.9200 124° Southeast 527 606 37,000  Level FlightAware ADS-B
Sat 07:03:19 AM 49.4050 7.0590 124° Southeast 523 602 37,000  Level FlightAware ADS-B
Sat 07:03:58 AM 49.3530 7.1750 125° Southeast 523 602 37,000  Level FlightAware ADS-B
Sat 07:04:43 AM 49.2910 7.3160 124° Southeast 523 602 37,000  Level FlightAware ADS-B
Sat 07:05:51 AM 49.2120 7.4920 124° Southeast 521 600 37,000  Level FlightAware ADS-B
Sat 07:06:32 AM 49.1370 7.6590 124° Southeast 519 597 37,000  Level FlightAware ADS-B
Sat 07:07:16 AM 49.0750 7.7940 125° Southeast 519 597 37,000  Level FlightAware ADS-B
Sat 07:07:56 AM 49.0190 7.9170 125° Southeast 520 598 37,000  Level FlightAware ADS-B
Sat 07:08:42 AM 48.9570 8.0530 125° Southeast 520 598 37,000  Level FlightAware ADS-B
Sat 07:09:22 AM 48.9030 8.1710 125° Southeast 522 601 37,000  Level FlightAware ADS-B
Sat 07:10:02 AM 48.8470 8.2940 125° Southeast 522 601 37,000  Level FlightAware ADS-B
Sat 07:10:46 AM 48.7840 8.4300 125° Southeast 526 605 37,000  Level FlightAware ADS-B
Sat 07:11:36 AM 48.7310 8.5440 125° Southeast 528 608 37,000  Level FlightAware ADS-B
Sat 07:12:21 AM 48.6540 8.7090 125° Southeast 531 611 37,000  Level FlightAware ADS-B
Sat 07:13:02 AM 48.5930 8.8390 125° Southeast 534 615 37,000  Level FlightAware ADS-B
Sat 07:14:03 AM 48.5100 9.0140 126° Southeast 532 612 37,000  Level FlightAware ADS-B
Sat 07:14:39 AM 48.4530 9.1330 126° Southeast 533 613 37,000  Level FlightAware ADS-B
Sat 07:15:24 AM 48.3930 9.2590 126° Southeast 533 613 37,000  Level FlightAware ADS-B
Sat 07:16:03 AM 48.3340 9.3810 126° Southeast 532 612 37,000  Level FlightAware ADS-B
Sat 07:16:46 AM 48.2810 9.4810 129° Southeast 527 606 37,000  Level FlightAware ADS-B
Sat 07:17:31 AM 48.1850 9.6150 137° Southeast 516 594 37,000  Level FlightAware ADS-B
Sat 07:18:10 AM 48.1140 9.7090 139° Southeast 514 592 37,000  Level FlightAware ADS-B
Sat 07:18:55 AM 48.0330 9.8150 139° Southeast 513 590 37,000  Level FlightAware ADS-B
Sat 07:19:36 AM 47.9600 9.9090 139° Southeast 512 589 37,000  Level FlightAware ADS-B
Sat 07:20:35 AM 47.8580 10.0450 138° Southeast 513 590 37,000  Level FlightAware ADS-B
Sat 07:21:11 AM 47.7910 10.1410 136° Southeast 518 596 37,000  Level FlightAware ADS-B
Sat 07:21:56 AM 47.7210 10.2420 136° Southeast 516 594 37,000  Level FlightAware ADS-B
Sat 07:22:28 AM 47.6570 10.3340 136° Southeast 516 594 37,000  Level FlightAware ADS-B
Sat 07:23:07 AM 47.5920 10.4280 136° Southeast 516 594 37,000  Level FlightAware ADS-B
Sat 07:23:50 AM 47.5150 10.5360 137° Southeast 517 595 37,000  Level FlightAware ADS-B
Sat 07:24:34 AM 47.4400 10.6420 136° Southeast 517 595 37,000  Level FlightAware ADS-B
Sat 07:25:13 AM 47.3750 10.7330 137° Southeast 518 596 37,000  Level FlightAware ADS-B
Sat 07:25:55 AM 47.3000 10.8390 136° Southeast 519 597 37,000  Level FlightAware ADS-B
Sat 07:26:38 AM 47.2260 10.9420 137° Southeast 519 597 37,000  Level FlightAware ADS-B
Sat 07:27:20 AM 47.1610 11.0330 136° Southeast 516 594 37,000  Level FlightAware ADS-B
Sat 07:27:59 AM 47.0850 11.1380 137° Southeast 519 597 37,000  Level FlightAware ADS-B
Sat 07:28:40 AM 47.0130 11.2380 137° Southeast 526 605 37,000  Level FlightAware ADS-B
Sat 07:29:26 AM 46.9340 11.3470 137° Southeast 527 606 37,000  Level FlightAware ADS-B
Sat 07:30:05 AM 46.8650 11.4520 134° Southeast 529 609 37,000  Level FlightAware ADS-B
Sat 07:30:52 AM 46.8120 11.6060 117° Southeast 536 617 37,000  Level FlightAware ADS-B
Sat 07:31:32 AM 46.7760 11.7260 114° Southeast 537 618 37,000  Level FlightAware ADS-B
Sat 07:32:14 AM 46.7300 11.8700 115° Southeast 533 613 37,000  Level FlightAware ADS-B
Sat 07:32:53 AM 46.6690 11.9880 127° Southeast 527 606 37,000  Level FlightAware ADS-B
Sat 07:33:38 AM 46.5840 12.0920 140° Southeast 527 606 37,000  Level FlightAware ADS-B
Sat 07:34:18 AM 46.5100 12.1750 142° Southeast 527 606 37,000  Level FlightAware ADS-B
Sat 07:35:03 AM 46.4220 12.2720 143° Southeast 527 606 37,000  Level FlightAware ADS-B
Sat 07:36:07 AM 46.2960 12.4110 143° Southeast 529 609 37,000  Level FlightAware ADS-B
Sat 07:36:52 AM 46.2100 12.5060 143° Southeast 530 610 37,000  Level FlightAware ADS-B
Sat 07:37:37 AM 46.1200 12.6050 143° Southeast 532 612 37,000  Level FlightAware ADS-B
Sat 07:38:17 AM 46.0420 12.6930 142° Southeast 534 615 37,000  Level FlightAware ADS-B
Sat 07:39:38 AM 45.8880 12.8690 141° Southeast 534 615 37,000  Level FlightAware ADS-B
Sat 07:40:22 AM 45.8030 12.9640 142° Southeast 535 616 37,000  Level FlightAware ADS-B
Sat 07:41:04 AM 45.7240 13.0530 142° Southeast 535 616 37,000  Level FlightAware ADS-B
Sat 07:41:47 AM 45.6370 13.1540 141° Southeast 534 615 37,000  Level FlightAware ADS-B
Sat 07:42:28 AM 45.5710 13.2640 131° Southeast 536 617 37,000  Level FlightAware ADS-B
Sat 07:43:13 AM 45.5010 13.3880 129° Southeast 537 618 37,000  Level FlightAware ADS-B
Sat 07:43:52 AM 45.4420 13.4970 128° Southeast 536 617 37,000  Level FlightAware ADS-B
Sat 07:44:38 AM 45.3770 13.6150 128° Southeast 535 616 37,000  Level FlightAware ADS-B
Sat 07:45:12 AM 45.3230 13.7120 128° Southeast 540 621 37,000  Level FlightAware ADS-B
Sat 07:46:02 AM 45.2370 13.8630 129° Southeast 538 619 37,000  Level FlightAware ADS-B
Sat 07:46:43 AM 45.1750 13.9720 129° Southeast 536 617 37,000  Level FlightAware ADS-B
Sat 07:47:22 AM 45.1260 14.0570 129° Southeast 534 615 37,000  Level FlightAware ADS-B
Sat 07:48:04 AM 45.0530 14.1850 129° Southeast 532 612 37,000  Level FlightAware ADS-B
Sat 07:48:49 AM 44.9840 14.3050 129° Southeast 531 611 37,000  Level FlightAware ADS-B
Sat 07:49:26 AM 44.9340 14.3910 129° Southeast 531 611 37,000  Level FlightAware ADS-B
Sat 07:50:09 AM 44.8570 14.5250 129° Southeast 531 611 37,000  Level FlightAware ADS-B
Sat 07:50:50 AM 44.8060 14.6120 130° Southeast 530 610 37,000  Level FlightAware ADS-B
Sat 07:51:38 AM 44.7190 14.7620 129° Southeast 530 610 37,000  Level FlightAware ADS-B
Sat 07:52:28 AM 44.6450 14.8880 130° Southeast 530 610 37,000  Level FlightAware ADS-B
Sat 07:53:13 AM 44.5680 15.0190 129° Southeast 529 609 37,000  Level FlightAware ADS-B
Sat 07:53:54 AM 44.5070 15.1210 130° Southeast 529 609 37,000  Level FlightAware ADS-B
Sat 07:54:39 AM 44.4360 15.2400 130° Southeast 528 608 37,000  Level FlightAware ADS-B
Sat 07:55:15 AM 44.3810 15.3330 130° Southeast 528 608 37,000  Level FlightAware ADS-B
Sat 07:56:04 AM 44.3020 15.4630 130° Southeast 528 608 37,000  Level FlightAware ADS-B
Sat 07:56:44 AM 44.2380 15.5700 130° Southeast 528 608 37,000  Level FlightAware ADS-B
Sat 07:57:24 AM 44.1740 15.6760 130° Southeast 528 608 37,000  Level FlightAware ADS-B
Sat 07:58:10 AM 44.1030 15.7920 130° Southeast 528 608 37,000  Level FlightAware ADS-B
Sat 07:58:49 AM 44.0400 15.8950 130° Southeast 528 608 37,000  Level FlightAware ADS-B
Sat 07:59:34 AM 43.9690 16.0110 130° Southeast 528 608 37,000  Level FlightAware ADS-B
Sat 08:00:14 AM 43.9080 16.1100 131° Southeast 524 603 37,000  Level FlightAware ADS-B
Sat 08:00:55 AM 43.8410 16.2200 130° Southeast 527 606 37,000  Level FlightAware ADS-B
Sat 08:01:39 AM 43.7730 16.3310 130° Southeast 527 606 37,000  Level FlightAware ADS-B
Sat 08:02:14 AM 43.7160 16.4240 130° Southeast 527 606 37,000  Level FlightAware ADS-B
Sat 08:03:04 AM 43.6350 16.5540 131° Southeast 523 602 37,000  Level FlightAware ADS-B
Sat 08:03:44 AM 43.5720 16.6550 131° Southeast 523 602 37,000  Level FlightAware ADS-B
Sat 08:04:24 AM 43.5090 16.7570 130° Southeast 523 602 37,000  Level FlightAware ADS-B
Sat 08:05:10 AM 43.4370 16.8710 131° Southeast 523 602 37,000  Level FlightAware ADS-B
Sat 08:05:51 AM 43.4040 16.9240 131° Southeast 528 608 37,000  Level FlightAware ADS-B
Sat 08:06:33 AM 43.3070 17.0770 131° Southeast 528 608 37,000  Level FlightAware ADS-B
Sat 08:07:14 AM 43.2350 17.1910 131° Southeast 528 608 37,000  Level FlightAware ADS-B
Sat 08:07:58 AM 43.1660 17.3010 131° Southeast 528 608 37,000  Level FlightAware ADS-B
Sat 08:08:38 AM 43.1020 17.4020 131° Southeast 528 608 37,000  Level FlightAware ADS-B
Sat 08:09:20 AM 43.0340 17.5080 131° Southeast 527 606 37,000  Level FlightAware ADS-B
Sat 08:10:00 AM 42.9690 17.6100 131° Southeast 528 608 37,000  Level FlightAware ADS-B
Sat 08:10:40 AM 42.9050 17.7110 131° Southeast 528 608 37,000  Level FlightAware ADS-B
Sat 08:11:42 AM 42.8060 17.8640 131° Southeast 527 606 37,000  Level FlightAware ADS-B
Sat 08:12:22 AM 42.7420 17.9650 131° Southeast 528 608 37,000  Level FlightAware ADS-B
Sat 08:13:02 AM 42.6770 18.0660 131° Southeast 528 608 37,000  Level FlightAware ADS-B
Sat 08:13:46 AM 42.6070 18.1740 131° Southeast 528 608 37,000  Level FlightAware ADS-B
Sat 08:14:38 AM 42.5650 18.2370 132° Southeast 529 609 37,000  Level FlightAware ADS-B
Sat 08:15:27 AM 42.4440 18.4060 134° Southeast 530 610 37,000  Level FlightAware ADS-B
Sat 08:16:06 AM 42.3670 18.5070 136° Southeast 532 612 37,000  Level FlightAware ADS-B
Sat 08:16:48 AM 42.2930 18.6050 136° Southeast 534 615 37,000  Level FlightAware ADS-B
Sat 08:17:32 AM 42.2160 18.7060 136° Southeast 535 616 37,000  Level FlightAware ADS-B
Sat 08:18:13 AM 42.1440 18.8020 135° Southeast 535 616 37,000  Level FlightAware ADS-B
Sat 08:19:24 AM 42.0210 18.9640 136° Southeast 533 613 37,000  Level FlightAware ADS-B
Sat 08:20:02 AM 41.9500 19.0570 136° Southeast 533 613 37,000  Level FlightAware ADS-B
Sat 08:20:48 AM 41.8700 19.1620 136° Southeast 530 610 37,000  Level FlightAware ADS-B
Sat 08:21:24 AM 41.8100 19.2410 136° Southeast 529 609 37,000  Level FlightAware ADS-B
Sat 08:22:12 AM 41.7210 19.3550 136° Southeast 527 606 37,000  Level FlightAware ADS-B
Sat 08:22:52 AM 41.6510 19.4450 136° Southeast 526 605 37,000  Level FlightAware ADS-B
Sat 08:23:36 AM 41.5750 19.5440 136° Southeast 524 603 37,000  Level FlightAware ADS-B
Sat 08:24:16 AM 41.5080 19.6290 136° Southeast 523 602 37,000  Level FlightAware ADS-B
Sat 08:24:56 AM 41.4340 19.7240 136° Southeast 522 601 37,000  Level FlightAware ADS-B
Sat 08:25:54 AM 41.3340 19.8520 136° Southeast 521 600 37,000  Level FlightAware ADS-B
Sat 08:26:38 AM 41.2580 19.9500 136° Southeast 520 598 37,000  Level FlightAware ADS-B
Sat 08:27:18 AM 41.1870 20.0380 137° Southeast 519 597 37,000  Level FlightAware ADS-B
Sat 08:28:02 AM 41.1110 20.1340 136° Southeast 520 598 37,000  Level FlightAware ADS-B
Sat 08:28:42 AM 41.0410 20.2230 136° Southeast 519 597 37,000  Level FlightAware ADS-B
Sat 08:29:25 AM 40.9650 20.3180 137° Southeast 521 600 37,000  Level FlightAware ADS-B
Sat 08:30:05 AM 40.8990 20.4030 136° Southeast 515 593 37,000  Level FlightAware ADS-B
Sat 08:30:50 AM 40.8200 20.5020 137° Southeast 516 594 37,000  Level FlightAware ADS-B
Sat 08:31:30 AM 40.7510 20.5890 136° Southeast 516 594 37,000  Level FlightAware ADS-B
Sat 08:32:15 AM 40.6710 20.6890 137° Southeast 516 594 37,000  Level FlightAware ADS-B
Sat 08:32:50 AM 40.6110 20.7640 136° Southeast 516 594 37,000  Level FlightAware ADS-B
Sat 08:33:30 AM 40.5570 20.8310 137° Southeast 522 601 37,000  Level FlightAware ADS-B
Sat 08:34:15 AM 40.4660 20.9560 134° Southeast 523 602 37,000  Level FlightAware ADS-B
Sat 08:35:00 AM 40.3960 21.0620 131° Southeast 522 601 37,000  Level FlightAware ADS-B
Sat 08:35:57 AM 40.3140 21.1890 130° Southeast 521 600 37,000  Level FlightAware ADS-B
Sat 08:36:40 AM 40.2360 21.3040 132° Southeast 516 594 37,000  Level FlightAware ADS-B
Sat 08:37:25 AM 40.1640 21.4090 132° Southeast 516 594 37,000  Level FlightAware ADS-B
Sat 08:38:10 AM 40.1240 21.4680 132° Southeast 516 594 37,000  Level FlightAware ADS-B
Sat 08:38:50 AM 40.0270 21.6100 132° Southeast 516 594 37,000  Level FlightAware ADS-B
Sat 08:39:30 AM 39.9630 21.7040 132° Southeast 516 594 37,000  Level FlightAware ADS-B
Sat 08:40:36 AM 39.8690 21.8410 132° Southeast 521 600 37,000  Level FlightAware ADS-B
Sat 08:41:22 AM 39.7810 21.9700 132° Southeast 523 602 37,000  Level FlightAware ADS-B
Sat 08:42:06 AM 39.7110 22.0710 132° Southeast 524 603 37,000  Level FlightAware ADS-B
Sat 08:42:48 AM 39.6440 22.1670 132° Southeast 525 604 37,000  Level FlightAware ADS-B
Sat 08:43:32 AM 39.5710 22.2720 132° Southeast 525 604 37,000  Level FlightAware ADS-B
Sat 08:44:10 AM 39.5090 22.3620 132° Southeast 526 605 37,000  Level FlightAware ADS-B
Sat 08:44:46 AM 39.4500 22.4470 132° Southeast 526 605 37,000  Level FlightAware ADS-B
Sat 08:45:54 AM 39.3590 22.5860 130° Southeast 526 605 37,000  Level FlightAware ADS-B
Sat 08:46:52 AM 39.2520 22.7440 131° Southeast 528 608 37,000  Level FlightAware ADS-B
Sat 08:47:35 AM 39.1810 22.8450 132° Southeast 524 603 37,000  Level FlightAware ADS-B
Sat 08:48:15 AM 39.1150 22.9360 133° Southeast 527 606 37,000  Level FlightAware ADS-B
Sat 08:48:59 AM 39.0370 23.0420 133° Southeast 534 615 37,000  Level FlightAware ADS-B
Sat 08:49:40 AM 38.9690 23.1330 134° Southeast 534 615 37,000  Level FlightAware ADS-B
Sat 08:50:35 AM 38.8730 23.2630 133° Southeast 535 616 37,000  Level FlightAware ADS-B
Sat 08:51:23 AM 38.8040 23.3580 133° Southeast 535 616 37,000  Level FlightAware ADS-B
Sat 08:52:03 AM 38.7260 23.4630 134° Southeast 537 618 37,000  Level FlightAware ADS-B
Sat 08:52:43 AM 38.6560 23.5580 133° Southeast 538 619 37,000  Level FlightAware ADS-B
Sat 08:53:21 AM 38.5900 23.6470 133° Southeast 539 620 37,000  Level FlightAware ADS-B
Sat 08:54:07 AM 38.5110 23.7540 133° Southeast 538 619 37,000  Level FlightAware ADS-B
Sat 08:54:51 AM 38.4380 23.8520 134° Southeast 536 617 37,000  Level FlightAware ADS-B
Sat 08:55:49 AM 38.3550 23.9660 133° Southeast 536 617 37,000  Level FlightAware ADS-B
Sat 08:56:26 AM 38.2790 24.0670 134° Southeast 534 615 37,000  Level FlightAware ADS-B
Sat 08:57:03 AM 38.2140 24.1550 133° Southeast 534 615 37,000  Level FlightAware ADS-B
Sat 08:57:53 AM 38.1290 24.2680 134° Southeast 531 611 37,000  Level FlightAware ADS-B
Sat 08:58:35 AM 38.0580 24.3630 133° Southeast 528 608 37,000  Level FlightAware ADS-B
Sat 08:59:16 AM 37.9910 24.4520 134° Southeast 526 605 37,000  Level FlightAware ADS-B
Sat 08:59:57 AM 37.9210 24.5460 133° Southeast 523 602 37,000  Level FlightAware ADS-B
Sat 09:00:37 AM 37.8620 24.6410 128° Southeast 520 598 37,000  Level FlightAware ADS-B
Sat 09:01:23 AM 37.7970 24.7580 125° Southeast 519 597 37,000  Level FlightAware ADS-B
Sat 09:02:03 AM 37.7430 24.8580 124° Southeast 520 598 37,000  Level FlightAware ADS-B
Sat 09:02:41 AM 37.6910 24.9500 126° Southeast 519 597 37,000  Level FlightAware ADS-B
Sat 09:03:29 AM 37.6240 25.0700 125° Southeast 521 600 37,000  Level FlightAware ADS-B
Sat 09:04:09 AM 37.5670 25.1690 126° Southeast 523 602 37,000  Level FlightAware ADS-B
Sat 09:04:53 AM 37.5040 25.2770 126° Southeast 524 603 37,000  Level FlightAware ADS-B
Sat 09:05:36 AM 37.4430 25.3830 126° Southeast 526 605 37,000  Level FlightAware ADS-B
Sat 09:06:15 AM 37.3870 25.4810 126° Southeast 525 604 37,000  Level FlightAware ADS-B
Sat 09:06:57 AM 37.3280 25.5830 126° Southeast 525 604 37,000  Level FlightAware ADS-B
Sat 09:07:43 AM 37.2610 25.6980 126° Southeast 524 603 37,000  Level FlightAware ADS-B
Sat 09:08:23 AM 37.2030 25.7980 126° Southeast 522 601 37,000  Level FlightAware ADS-B
Sat 09:09:03 AM 37.1470 25.8950 126° Southeast 520 598 37,000  Level FlightAware ADS-B
Sat 09:09:47 AM 37.0840 26.0040 126° Southeast 520 598 37,000  Level FlightAware ADS-B
Sat 09:10:21 AM 37.0350 26.0870 126° Southeast 520 598 37,000  Level FlightAware ADS-B
Sat 09:11:43 AM 36.9930 26.1580 127° Southeast 520 598 37,000  Level FlightAware ADS-B
Sat 09:12:26 AM 36.8570 26.3900 126° Southeast 520 598 37,000  Level FlightAware ADS-B
Sat 09:13:09 AM 36.7950 26.4930 127° Southeast 521 600 37,000  Level FlightAware ADS-B
Sat 09:13:53 AM 36.7310 26.5990 127° Southeast 522 601 37,000  Level FlightAware ADS-B
Sat 09:14:33 AM 36.6730 26.6950 127° Southeast 524 603 37,000  Level FlightAware ADS-B
Sat 09:15:13 AM 36.6140 26.7920 127° Southeast 525 604 37,000  Level FlightAware ADS-B
Sat 09:15:53 AM 36.5570 26.8850 127° Southeast 524 603 37,000  Level FlightAware ADS-B
Sat 09:16:41 AM 36.4860 27.0030 127° Southeast 524 603 37,000  Level FlightAware ADS-B
Sat 09:17:20 AM 36.4290 27.0960 127° Southeast 525 604 37,000  Level FlightAware ADS-B
Sat 09:18:01 AM 36.3790 27.1780 127° Southeast 524 603 37,000  Level FlightAware ADS-B
Sat 09:18:41 AM 36.3520 27.2230 127° Southeast 524 603 37,000  Level FlightAware ADS-B
Sat 09:19:24 AM 36.2580 27.3760 127° Southeast 526 605 37,000  Level FlightAware ADS-B
Sat 09:20:17 AM 36.1840 27.4950 128° Southeast 523 602 37,000  Level FlightAware ADS-B
Sat 09:21:01 AM 36.1160 27.6060 127° Southeast 521 600 37,000  Level FlightAware ADS-B
Sat 09:21:43 AM 36.0600 27.6970 127° Southeast 520 598 37,000  Level FlightAware ADS-B
Sat 09:22:27 AM 35.9920 27.8060 128° Southeast 519 597 37,000  Level FlightAware ADS-B
Sat 09:23:07 AM 35.9330 27.9000 128° Southeast 520 598 37,000  Level FlightAware ADS-B
Sat 09:23:51 AM 35.8690 28.0030 127° Southeast 520 598 37,000  Level FlightAware ADS-B
Sat 09:24:56 AM 35.7680 28.1640 128° Southeast 516 594 37,000  Level FlightAware ADS-B
Sat 09:25:47 AM 35.6870 28.2920 128° Southeast 513 590 37,000  Level FlightAware ADS-B
Sat 09:26:26 AM 35.6280 28.3850 128° Southeast 511 588 37,000  Level FlightAware ADS-B
Sat 09:27:10 AM 35.5650 28.4850 128° Southeast 511 588 37,000  Level FlightAware ADS-B
Sat 09:27:52 AM 35.5030 28.5820 128° Southeast 510 587 37,000  Level FlightAware ADS-B
Sat 09:28:34 AM 35.4420 28.6780 128° Southeast 509 586 37,000  Level FlightAware ADS-B
Sat 09:29:14 AM 35.3840 28.7690 128° Southeast 507 583 37,000  Level FlightAware ADS-B
Sat 09:29:54 AM 35.3270 28.8560 129° Southeast 505 581 37,000  Level FlightAware ADS-B
Sat 09:30:52 AM 35.2690 28.9470 128° Southeast 504 580 37,000  Level FlightAware ADS-B
Sat 09:31:37 AM 35.1780 29.0870 128° Southeast 501 577 37,000  Level FlightAware ADS-B
Sat 09:32:11 AM 35.1300 29.1630 128° Southeast 499 574 37,000  Level FlightAware ADS-B
Sat 09:32:55 AM 35.0720 29.2510 129° Southeast 497 572 37,000  Level FlightAware ADS-B
Sat 09:33:33 AM 35.0250 29.3240 128° Southeast 497 572 37,000  Level FlightAware ADS-B
Sat 09:34:22 AM 34.9660 29.4160 128° Southeast 497 572 37,000  Level FlightAware ADS-B
Sat 09:35:01 AM 34.9190 29.4900 128° Southeast 497 572 37,000  Level FlightAware ADS-B
Sat 09:35:57 AM 34.8100 29.6530 129° Southeast 490 564 37,000  Level FlightAware ADS-B
Sat 09:36:42 AM 34.7450 29.7530 128° Southeast 489 563 37,000  Level FlightAware ADS-B
Sat 09:37:23 AM 34.6920 29.8420 126° Southeast 498 573 37,000  Level FlightAware ADS-B
Sat 09:38:38 AM 34.6070 30.0110 121° Southeast 501 577 37,000  Level FlightAware ADS-B
Sat 09:39:12 AM 34.5720 30.0810 121° Southeast 501 577 37,000  Level FlightAware ADS-B
Sat 09:39:58 AM 34.5060 30.2150 121° Southeast 499 574 37,000  Level FlightAware ADS-B
Sat 09:40:33 AM 34.4640 30.3010 121° Southeast 499 574 37,000  Level FlightAware ADS-B
Sat 09:41:18 AM 34.4120 30.4060 121° Southeast 495 570 37,000  Level FlightAware ADS-B
Sat 09:42:04 AM 34.3570 30.5190 120° Southeast 500 575 37,000  Level FlightAware ADS-B
Sat 09:42:44 AM 34.3090 30.6180 120° Southeast 503 579 37,000  Level FlightAware ADS-B
Sat 09:43:29 AM 34.2570 30.7240 121° Southeast 504 580 37,000  Level FlightAware ADS-B
Sat 09:44:10 AM 34.2100 30.8200 121° Southeast 503 579 37,000  Level FlightAware ADS-B
Sat 09:44:50 AM 34.1610 30.9190 121° Southeast 503 579 37,000  Level FlightAware ADS-B
Sat 09:45:30 AM 34.1110 31.0200 121° Southeast 503 579 37,000  Level FlightAware ADS-B
Sat 09:46:18 AM 34.0810 31.0820 120° Southeast 503 579 37,000  Level FlightAware ADS-B
Sat 09:46:57 AM 34.0090 31.2260 121° Southeast 504 580 37,000  Level FlightAware ADS-B
Sat 09:47:42 AM 33.9540 31.3380 121° Southeast 504 580 37,000  Level FlightAware ADS-B
Sat 09:48:22 AM 33.9120 31.4240 120° Southeast 503 579 37,000  Level FlightAware ADS-B
Sat 09:49:03 AM 33.8580 31.5320 121° Southeast 501 577 37,000  Level FlightAware ADS-B
Sat 09:49:47 AM 33.8050 31.6380 121° Southeast 499 574 37,000  Level FlightAware ADS-B
Sat 09:50:23 AM 33.7640 31.7220 120° Southeast 495 570 37,000  Level FlightAware ADS-B
Sat 09:51:07 AM 33.7110 31.8290 121° Southeast 499 574 37,000  Level FlightAware ADS-B
Sat 09:51:47 AM 33.6640 31.9230 121° Southeast 500 575 37,000  Level FlightAware ADS-B
Sat 09:52:32 AM 33.6110 32.0300 121° Southeast 500 575 37,000  Level FlightAware ADS-B
Sat 09:53:18 AM 33.5560 32.1400 121° Southeast 500 575 37,000  Level FlightAware ADS-B
Sat 09:53:59 AM 33.5060 32.2380 121° Southeast 502 578 37,000  Level FlightAware ADS-B
Sat 09:54:39 AM 33.4580 32.3340 121° Southeast 502 578 37,000  Level FlightAware ADS-B
Sat 09:55:17 AM 33.4110 32.4260 121° Southeast 502 578 37,000  Level FlightAware ADS-B
Sat 09:56:21 AM 33.3340 32.5770 121° Southeast 506 582 37,000 -490 Level FlightAware ADS-B
Sat 09:56:55 AM 33.2930 32.6580 121° Southeast 507 583 36,200 -1,139 Descending FlightAware ADS-B
Sat 09:57:40 AM 33.2360 32.7700 121° Southeast 502 578 35,500 -635 Descending FlightAware ADS-B
Sat 09:58:39 AM 33.1740 32.8930 121° Southeast 497 572 35,100 -1,576 Descending FlightAware ADS-B
Sat 09:59:19 AM 33.1180 32.9990 122° Southeast 501 577 32,900 -3,366 Descending FlightAware ADS-B
Sat 10:00:01 AM 33.0670 33.0980 122° Southeast 504 580 30,500 -3,321 Descending FlightAware ADS-B
Sat 10:01:11 AM 32.9830 33.2600 122° Southeast 498 573 26,700 -3,111 Descending FlightAware ADS-B
Sat 10:01:49 AM 32.9350 33.3530 122° Southeast 503 579 24,900 -1,929 Descending FlightAware ADS-B
Sat 10:02:35 AM 32.8800 33.4590 122° Southeast 488 562 24,000 -1,067 Descending FlightAware ADS-B
Sat 10:03:19 AM 32.8280 33.5580 122° Southeast 472 543 23,300 -1,674 Descending FlightAware ADS-B
Sat 10:04:01 AM 32.7800 33.6490 122° Southeast 454 522 21,600 -2,530 Descending FlightAware ADS-B
Sat 10:04:42 AM 32.7360 33.7330 122° Southeast 442 509 19,800 -2,000 Descending FlightAware ADS-B
Sat 10:05:19 AM 32.7160 33.7740 120° Southeast 438 504 19,000 -2,612 Descending FlightAware ADS-B
Sat 10:06:07 AM 32.6480 33.9050 122° Southeast 424 488 16,100 -3,065 Descending FlightAware ADS-B
Sat 10:06:51 AM 32.6020 33.9930 122° Southeast 410 472 14,300 -2,488 Descending FlightAware ADS-B
Sat 10:07:29 AM 32.5640 34.0650 122° Southeast 401 461 12,700 -2,222 Descending FlightAware ADS-B
Sat 10:08:12 AM 32.5220 34.1440 122° Southeast 387 445 11,300 -1,694 Descending FlightAware ADS-B
Sat 10:08:54 AM 32.4770 34.2120 128° Southeast 358 412 10,300 -667 Descending FlightAware ADS-B
Sat 10:09:51 AM 32.4180 34.2850 134° Southeast 292 336 10,200 -434 Descending FlightAware ADS-B
Sat 10:10:17 AM 32.3940 34.3140 134° Southeast 277 319 9,700 -1,059 Descending FlightAware ADS-B
Sat 10:10:59 AM 32.3660 34.3490 133° Southeast 277 319 9,000 -900 Descending FlightAware ADS-B
Sat 10:11:37 AM 32.3310 34.3960 131° Southeast 280 322 8,500 -405 Descending FlightAware ADS-B
Sat 10:12:13 AM 32.3060 34.4320 129° Southeast 280 322 8,500 -1,620 Level FlightAware ADS-B
Sat 10:13:17 AM 32.2550 34.5240 123° Southeast 273 314 5,800 -1,714 Descending FlightAware ADS-B
Sat 10:13:51 AM 32.2300 34.5660 125° Southeast 272 313 5,700 -618 Descending FlightAware ADS-B
Sat 10:14:25 AM 32.2060 34.6060 125° Southeast 269 310 5,100 -692 Descending FlightAware ADS-B
Sat 10:14:43 AM 32.1950 34.6230 127° Southeast 268 308 5,100  Level FlightAware ADS-B
Sat 10:15:25 AM 32.1610 34.6790 126° Southeast 267 307 5,100  Level FlightAware ADS-B
Sat 10:15:57 AM 32.1430 34.7060 128° Southeast 250 288 5,100  Level FlightAware ADS-B
Sat 10:16:18 AM 32.1250 34.7360 125° Southeast 236 272 5,100  Level FlightAware ADS-B
Sat 10:17:00 AM 32.0970 34.7810 126° Southeast 232 267 5,100  Level FlightAware ADS-B
Sat 10:17:18 AM 32.0850 34.7980 130° Southeast 230 265 5,100 -490 Level FlightAware ADS-B
Sat 10:17:49 AM 32.0620 34.8250 135° Southeast 226 260 4,700 -545 Descending FlightAware ADS-B
Sat 10:18:13 AM 32.0450 34.8450 135° Southeast 233 268 4,600 -171 Descending FlightAware ADS-B
Sat 10:18:24 AM 32.0360 34.8550 137° Southeast 233 268 4,600 -150 Level FlightAware ADS-B
Sat 10:18:53 AM 32.0130 34.8820 135° Southeast 219 252 4,500 -293 Descending FlightAware ADS-B
Sat 10:19:05 AM 32.0050 34.8920 133° Southeast 210 242 4,400 -600 Descending FlightAware ADS-B
Sat 10:19:23 AM 31.9940 34.9080 129° Southeast 200 230 4,200 -800 Descending FlightAware ADS-B
Sat 10:19:35 AM 31.9920 34.9200 101° East 190 219 4,000 -1,143 Descending FlightAware ADS-B
Sat 10:20:05 AM 31.9960 34.9480 80° East 166 191 3,400 -1,250 Descending FlightAware ADS-B
Sat 10:20:23 AM 31.9990 34.9630 77° East 166 191 3,000 -1,400 Descending FlightAware ADS-B
Sat 10:20:35 AM 32.0010 34.9710 74° East 165 190 2,700 -828 Descending FlightAware ADS-B
Sat 10:21:21 AM 32.0100 35.0080 74° East 166 191 2,200 -652 Descending FlightAware ADS-B
Sat 10:24:00 AM 32.0095 34.8769 270° West  Level Estimated

Login

Don't have an account? Register now (free) for customized features, flight alerts, and more!